createdAt,value
2016-12-21T00:01:59.915Z,0
2016-12-21T00:12:13.403Z,0
2016-12-21T00:22:26.440Z,0
2016-12-21T00:32:41.212Z,0
2016-12-21T00:42:54.687Z,0
2016-12-21T00:53:09.399Z,0
2016-12-21T01:03:24.204Z,0
2016-12-21T01:13:38.175Z,0
2016-12-21T01:23:52.232Z,0
2016-12-21T01:34:06.997Z,0
2016-12-21T01:44:21.610Z,0
2016-12-21T01:54:34.838Z,0
2016-12-21T02:04:49.153Z,0
2016-12-21T02:15:02.900Z,0
2016-12-21T02:25:16.436Z,0
2016-12-21T02:35:30.999Z,0
2016-12-21T02:45:45.291Z,0
2016-12-21T02:55:59.941Z,0
2016-12-21T03:06:13.647Z,0
2016-12-21T03:16:27.489Z,0
2016-12-21T03:26:41.182Z,0
2016-12-21T03:36:54.491Z,0
2016-12-21T03:47:09.326Z,0
2016-12-21T03:57:23.653Z,0
2016-12-21T04:07:37.634Z,0
2016-12-21T04:17:52.560Z,0
2016-12-21T04:28:07.496Z,0
2016-12-21T04:38:20.579Z,0
2016-12-21T04:48:34.376Z,0
2016-12-21T04:58:48.218Z,0
2016-12-21T05:09:02.642Z,0
2016-12-21T05:19:15.924Z,0
2016-12-21T05:29:29.483Z,0
2016-12-21T05:39:44.481Z,0
2016-12-21T05:49:58.599Z,0
2016-12-21T06:00:12.757Z,0
2016-12-21T06:10:25.847Z,0
2016-12-21T06:20:39.523Z,0
2016-12-21T06:30:53.593Z,0
2016-12-21T06:41:07.832Z,0
2016-12-21T06:51:21.317Z,0
2016-12-21T07:01:34.947Z,0
2016-12-21T07:22:02.301Z,5
2016-12-21T07:32:15.963Z,20
2016-12-21T07:42:30.721Z,30
2016-12-21T07:52:44.647Z,45
2016-12-21T08:02:59.183Z,60
2016-12-21T08:13:14.175Z,80
2016-12-21T08:23:28.206Z,110
2016-12-21T08:33:41.969Z,150
2016-12-21T08:43:55.278Z,130
2016-12-21T08:54:08.905Z,140
2016-12-21T09:04:23.528Z,155
2016-12-21T09:14:37.171Z,175
2016-12-21T09:24:51.665Z,190
2016-12-21T09:35:06.138Z,260
2016-12-21T09:45:19.826Z,335
2016-12-21T09:55:33.167Z,430
2016-12-21T10:05:48.055Z,495
2016-12-21T10:16:02.289Z,550
2016-12-21T10:26:17.041Z,600
2016-12-21T10:46:45.244Z,440
2016-12-21T10:56:58.352Z,610
2016-12-21T11:07:13.248Z,560
2016-12-21T11:17:27.556Z,360
2016-12-21T11:27:41.394Z,335
2016-12-21T11:37:55.333Z,300
2016-12-21T11:48:10.249Z,360
2016-12-21T11:58:23.792Z,255
2016-12-21T12:08:36.934Z,455
2016-12-21T12:18:51.523Z,445
2016-12-21T12:29:06.164Z,375
2016-12-21T12:39:19.908Z,405
2016-12-21T12:49:33.986Z,415
2016-12-21T12:59:48.713Z,410
2016-12-21T13:10:02.869Z,330
2016-12-21T13:20:17.402Z,240
2016-12-21T13:30:32.255Z,240
2016-12-21T13:40:45.999Z,240
2016-12-21T13:51:00.526Z,200
2016-12-21T14:01:13.942Z,175
2016-12-21T14:11:27.966Z,150
2016-12-21T14:21:43.029Z,120
2016-12-21T14:31:56.680Z,95
2016-12-21T14:42:09.897Z,70
2016-12-21T14:52:24.820Z,55
2016-12-21T15:02:38.735Z,35
2016-12-21T15:12:53.630Z,20
2016-12-21T15:23:08.402Z,10
2016-12-21T15:33:22.462Z,0
2016-12-21T15:43:37.227Z,0
2016-12-21T15:53:50.550Z,0
2016-12-21T16:04:05.341Z,0
2016-12-21T16:14:19.374Z,0
2016-12-21T16:24:34.369Z,0
2016-12-21T16:34:48.648Z,0
2016-12-21T16:45:02.784Z,0
2016-12-21T16:55:16.197Z,0
2016-12-21T17:05:29.733Z,0
2016-12-21T17:15:43.026Z,0
2016-12-21T17:25:56.940Z,0
2016-12-21T17:36:11.268Z,0
2016-12-21T17:46:24.455Z,0
2016-12-21T17:56:38.190Z,0
2016-12-21T18:06:51.827Z,0
2016-12-21T18:17:06.357Z,0
2016-12-21T18:27:20.747Z,0
2016-12-21T18:37:33.647Z,0
2016-12-21T18:47:48.320Z,0
2016-12-21T18:58:02.349Z,0
2016-12-21T19:18:28.944Z,0
2016-12-21T19:28:43.078Z,0
2016-12-21T19:38:57.330Z,0
2016-12-21T19:49:10.797Z,0
2016-12-21T20:09:38.413Z,0
2016-12-21T20:19:52.304Z,0
2016-12-21T20:30:05.184Z,0
2016-12-21T20:40:20.168Z,0
2016-12-21T20:50:34.144Z,0
2016-12-21T21:00:48.648Z,0
2016-12-21T21:11:02.050Z,0
2016-12-21T21:21:15.171Z,0
2016-12-21T21:31:30.079Z,0
2016-12-21T21:41:44.407Z,0
2016-12-21T21:51:58.099Z,0
2016-12-21T22:02:12.603Z,0
2016-12-21T22:12:27.244Z,0
2016-12-21T22:22:40.300Z,0
2016-12-21T22:43:07.918Z,0
2016-12-21T22:53:22.798Z,0
2016-12-21T23:03:37.402Z,0
2016-12-21T23:13:51.867Z,0
2016-12-21T23:24:06.123Z,0
2016-12-21T23:34:19.424Z,0
2016-12-21T23:44:33.286Z,0
2016-12-21T23:54:48.056Z,0
